createdAt,value
2022-10-24T00:01:24.168Z,100024.31
2022-10-24T00:04:13.090Z,100030.66
2022-10-24T00:07:00.309Z,100032.66
2022-10-24T00:09:47.937Z,100022.06
2022-10-24T00:12:35.245Z,100008.78
2022-10-24T00:15:23.400Z,100016.34
2022-10-24T00:18:10.689Z,100006.72
2022-10-24T00:20:59.592Z,100006.34
2022-10-24T00:23:47.372Z,100001.31
2022-10-24T00:26:35.509Z,100008.66
2022-10-24T00:29:22.323Z,100023.09
2022-10-24T00:32:10.044Z,100029.47
2022-10-24T00:34:57.189Z,100024.41
2022-10-24T00:37:46.653Z,100032.47
2022-10-24T00:40:34.134Z,100032.47
2022-10-24T00:43:24.213Z,100023.56
2022-10-24T00:46:11.939Z,100020.03
2022-10-24T00:48:59.674Z,100025.41
2022-10-24T00:51:50.060Z,100025.25
2022-10-24T00:54:41.356Z,100021.72
2022-10-24T00:57:32.560Z,100020.88
2022-10-24T01:00:23.118Z,100022.56
2022-10-24T01:03:12.003Z,100032.47
2022-10-24T01:06:12.636Z,100018.03
2022-10-24T01:09:11.312Z,100012.34
2022-10-24T01:12:11.215Z,100003.28
2022-10-24T01:15:07.726Z,100005.81
2022-10-24T01:18:02.101Z,100002.16
2022-10-24T01:21:15.016Z,99998.47
2022-10-24T01:24:16.850Z,100005.19
2022-10-24T01:27:29.753Z,99999.13
2022-10-24T01:30:20.287Z,100010.41
2022-10-24T01:33:16.277Z,100013.09
2022-10-24T01:36:08.818Z,100015.78
2022-10-24T01:39:01.015Z,100021.47
2022-10-24T01:41:49.476Z,100009.03
2022-10-24T01:44:40.662Z,100007.88
2022-10-24T01:47:34.627Z,100012.41
2022-10-24T01:50:23.889Z,100003.34
2022-10-24T01:53:12.244Z,100004.34
2022-10-24T01:56:00.780Z,100006.34
2022-10-24T01:58:48.408Z,100003.00
2022-10-24T02:01:38.339Z,99999.59
2022-10-24T02:04:29.267Z,100002.44
2022-10-24T02:07:19.964Z,99994.19
2022-10-24T02:10:11.372Z,99996.31
2022-10-24T02:13:06.570Z,99993.09
2022-10-24T02:15:57.878Z,99997.78
2022-10-24T02:18:47.156Z,100007.97
2022-10-24T02:21:43.458Z,100005.44
2022-10-24T02:24:34.886Z,100002.41
2022-10-24T02:27:30.165Z,100007.38
2022-10-24T02:30:21.287Z,99995.25
2022-10-24T02:33:12.779Z,100008.12
2022-10-24T02:36:00.825Z,100002.06
2022-10-24T02:38:53.563Z,100005.22
2022-10-24T02:41:43.546Z,100002.13
2022-10-24T02:44:32.387Z,99995.22
2022-10-24T02:47:22.249Z,99991.84
2022-10-24T02:50:10.599Z,99982.25
2022-10-24T02:52:58.117Z,99976.91
2022-10-24T02:55:47.484Z,99973.50
2022-10-24T02:58:34.699Z,99977.19
2022-10-24T03:01:21.923Z,99983.69
2022-10-24T03:04:09.623Z,99990.50
2022-10-24T03:06:56.731Z,99994.50
2022-10-24T03:09:44.150Z,99987.75
2022-10-24T03:12:32.652Z,99984.50
2022-10-24T03:15:20.727Z,99989.34
2022-10-24T03:18:09.183Z,99986.97
2022-10-24T03:20:56.600Z,99989.94
2022-10-24T03:23:43.602Z,99998.12
2022-10-24T03:26:31.319Z,99997.44
2022-10-24T03:29:19.789Z,100001.97
2022-10-24T03:32:07.588Z,99993.94
2022-10-24T03:34:55.111Z,99993.25
2022-10-24T03:37:42.629Z,100001.28
2022-10-24T03:40:30.163Z,99998.88
2022-10-24T03:43:18.694Z,99990.72
2022-10-24T03:46:07.236Z,99998.88
2022-10-24T03:48:54.705Z,100008.59
2022-10-24T03:51:41.885Z,100009.59
2022-10-24T03:54:29.285Z,100011.44
2022-10-24T03:57:16.545Z,100015.12
2022-10-24T04:00:05.862Z,100012.44
2022-10-24T04:02:54.819Z,100018.66
2022-10-24T04:05:42.323Z,100024.84
2022-10-24T04:08:29.548Z,100038.44
2022-10-24T04:11:17.072Z,100044.78
2022-10-24T04:14:05.119Z,100043.25
2022-10-24T04:16:52.450Z,100040.72
2022-10-24T04:19:40.902Z,100034.34
2022-10-24T04:22:28.172Z,100032.38
2022-10-24T04:25:15.187Z,100034.75
2022-10-24T04:28:02.513Z,100040.94
2022-10-24T04:30:55.956Z,100034.47
2022-10-24T04:33:43.171Z,100032.63
2022-10-24T04:36:31.614Z,100021.19
2022-10-24T04:39:19.794Z,100007.78
2022-10-24T04:42:07.269Z,100003.25
2022-10-24T04:44:54.813Z,100000.44
2022-10-24T04:47:41.980Z,100002.13
2022-10-24T04:50:29.336Z,99990.41
2022-10-24T04:53:17.909Z,99996.59
2022-10-24T04:56:05.990Z,99989.56
2022-10-24T04:58:53.315Z,99976.16
2022-10-24T05:01:40.584Z,99981.50
2022-10-24T05:04:27.635Z,99974.16
2022-10-24T05:07:14.878Z,99974.84
2022-10-24T05:10:03.165Z,99965.94
2022-10-24T05:12:50.073Z,99955.37
2022-10-24T05:15:37.510Z,99955.53
2022-10-24T05:18:24.931Z,99956.81
2022-10-24T05:21:12.175Z,99958.66
2022-10-24T05:23:59.948Z,99964.72
2022-10-24T05:26:48.612Z,99958.06
2022-10-24T05:29:36.999Z,99957.06
2022-10-24T05:32:25.407Z,99958.91
2022-10-24T05:35:13.049Z,99975.00
2022-10-24T05:38:00.045Z,99976.69
2022-10-24T05:40:49.322Z,99968.78
2022-10-24T05:43:39.476Z,99968.78
2022-10-24T05:46:27.091Z,99971.31
2022-10-24T05:49:14.490Z,99969.31
2022-10-24T05:52:02.162Z,99977.94
2022-10-24T05:55:02.395Z,99980.31
2022-10-24T05:57:53.562Z,99982.16
2022-10-24T06:00:41.931Z,99991.88
2022-10-24T06:03:29.798Z,99990.34
2022-10-24T06:06:16.530Z,99994.03
2022-10-24T06:09:05.903Z,99998.25
2022-10-24T06:11:53.171Z,99998.09
2022-10-24T06:14:41.132Z,99988.88
2022-10-24T06:17:29.318Z,99989.12
2022-10-24T06:20:16.504Z,99990.50
2022-10-24T06:23:03.765Z,99990.75
2022-10-24T06:25:51.131Z,99983.63
2022-10-24T06:28:38.319Z,99979.22
2022-10-24T06:31:26.846Z,99983.00
2022-10-24T06:34:15.419Z,99984.88
2022-10-24T06:37:02.962Z,99992.19
2022-10-24T06:39:49.639Z,99995.63
2022-10-24T06:42:36.746Z,99989.47
2022-10-24T06:45:24.067Z,100002.66
2022-10-24T06:48:11.246Z,99999.88
2022-10-24T06:51:00.033Z,100001.78
2022-10-24T06:53:47.674Z,100008.22
2022-10-24T06:56:34.626Z,100010.44
2022-10-24T06:59:21.566Z,100017.03
2022-10-24T07:02:08.517Z,100011.72
2022-10-24T07:04:55.888Z,100012.28
2022-10-24T07:07:45.825Z,100013.03
2022-10-24T07:10:33.519Z,100020.84
2022-10-24T07:13:20.950Z,100036.00
2022-10-24T07:16:09.009Z,100029.12
2022-10-24T07:18:56.069Z,100031.88
2022-10-24T07:21:43.288Z,100029.06
2022-10-24T07:24:32.214Z,100037.88
2022-10-24T07:27:19.389Z,100038.75
2022-10-24T07:30:07.490Z,100045.31
2022-10-24T07:32:55.974Z,100058.81
2022-10-24T07:35:43.339Z,100055.59
2022-10-24T07:38:30.743Z,100054.13
2022-10-24T07:41:19.352Z,100057.00
2022-10-24T07:44:06.834Z,100061.88
2022-10-24T07:46:56.746Z,100078.41
2022-10-24T07:49:43.892Z,100071.84
2022-10-24T07:52:30.593Z,100064.63
2022-10-24T07:55:17.980Z,100071.19
2022-10-24T07:58:06.250Z,100065.47
2022-10-24T08:00:54.016Z,100057.53
2022-10-24T08:03:41.354Z,100044.28
2022-10-24T08:06:31.280Z,100054.91
2022-10-24T08:09:19.062Z,100053.22
2022-10-24T08:12:05.776Z,100052.34
2022-10-24T08:14:55.876Z,100047.97
2022-10-24T08:17:42.906Z,100056.06
2022-10-24T08:20:30.270Z,100034.47
2022-10-24T08:23:19.937Z,100025.34
2022-10-24T08:26:10.967Z,100029.72
2022-10-24T08:28:57.981Z,100022.59
2022-10-24T08:31:46.834Z,100025.12
2022-10-24T08:34:34.452Z,100015.31
2022-10-24T08:37:21.476Z,100000.13
2022-10-24T08:40:13.085Z,100005.63
2022-10-24T08:43:00.044Z,100004.94
2022-10-24T08:45:59.779Z,100006.44
2022-10-24T08:48:53.815Z,100005.41
2022-10-24T08:51:44.408Z,99997.28
2022-10-24T08:54:37.795Z,99997.72
2022-10-24T08:57:28.410Z,100007.97
2022-10-24T09:00:20.585Z,99996.62
2022-10-24T09:03:22.955Z,100000.97
2022-10-24T09:06:20.316Z,100002.22
2022-10-24T09:09:17.929Z,99996.19
2022-10-24T09:12:10.160Z,99992.31
2022-10-24T09:15:00.694Z,99995.28
2022-10-24T09:17:48.753Z,99997.94
2022-10-24T09:20:35.585Z,99999.25
2022-10-24T09:23:25.331Z,99990.09
2022-10-24T09:26:18.882Z,99990.78
2022-10-24T09:29:05.892Z,99997.12
2022-10-24T09:31:52.781Z,99994.91
2022-10-24T09:34:39.677Z,99997.91
2022-10-24T09:37:41.234Z,100003.81
2022-10-24T09:40:35.469Z,100000.53
2022-10-24T09:43:25.055Z,100004.56
2022-10-24T09:46:14.977Z,100000.47
2022-10-24T09:49:06.016Z,100005.69
2022-10-24T09:52:03.736Z,100007.56
2022-10-24T09:55:07.296Z,100002.53
2022-10-24T09:57:58.070Z,100007.09
2022-10-24T10:00:45.159Z,100005.63
2022-10-24T10:03:33.137Z,100006.91
2022-10-24T10:06:22.117Z,100014.56
2022-10-24T10:09:13.902Z,100017.09
2022-10-24T10:12:03.827Z,100011.47
2022-10-24T10:14:52.885Z,100006.81
2022-10-24T10:17:51.099Z,100006.44
2022-10-24T10:20:41.161Z,100001.31
2022-10-24T10:23:31.702Z,99998.16
2022-10-24T10:26:23.675Z,100000.00
2022-10-24T10:29:23.929Z,100000.00
2022-10-24T10:32:22.755Z,100002.81
2022-10-24T10:35:16.726Z,100005.88
2022-10-24T10:38:17.395Z,100006.09
2022-10-24T10:41:15.612Z,100010.19
2022-10-24T10:44:20.938Z,100011.50
2022-10-24T10:47:23.952Z,100016.53
2022-10-24T10:50:26.014Z,100010.28
2022-10-24T10:53:29.598Z,100001.59
2022-10-24T10:56:29.966Z,100006.16
2022-10-24T10:59:35.131Z,100007.38
2022-10-24T11:02:52.234Z,100010.84
2022-10-24T11:05:54.077Z,100007.84
2022-10-24T11:09:04.467Z,100009.19
2022-10-24T11:11:56.285Z,100005.53
2022-10-24T11:14:46.439Z,100008.12
2022-10-24T11:17:43.458Z,100017.75
2022-10-24T11:20:35.682Z,100011.09
2022-10-24T11:23:30.278Z,100007.66
2022-10-24T11:26:23.721Z,100010.16
2022-10-24T11:29:19.561Z,100017.34
2022-10-24T11:32:18.033Z,100016.13
2022-10-24T11:35:20.879Z,100003.50
2022-10-24T11:38:14.888Z,100010.09
2022-10-24T11:41:18.889Z,100006.25
2022-10-24T11:44:18.965Z,99996.97
2022-10-24T11:47:32.036Z,100000.81
2022-10-24T11:50:26.835Z,100002.16
2022-10-24T11:53:24.703Z,99997.97
2022-10-24T11:56:18.059Z,100001.06
2022-10-24T11:59:08.046Z,99990.97
2022-10-24T12:02:27.744Z,99985.19
2022-10-24T12:05:44.553Z,99988.16
2022-10-24T12:08:47.977Z,99983.44
2022-10-24T12:11:57.313Z,99981.06
2022-10-24T12:15:07.861Z,99978.78
2022-10-24T12:18:09.301Z,99974.19
2022-10-24T12:21:02.653Z,99972.06
2022-10-24T12:23:55.045Z,99971.03
2022-10-24T12:26:43.467Z,99969.13
2022-10-24T12:29:33.659Z,99966.22
2022-10-24T12:32:25.994Z,99965.34
2022-10-24T12:35:37.958Z,99963.66
2022-10-24T12:39:08.420Z,99966.38
2022-10-24T12:41:58.946Z,99976.22
2022-10-24T12:44:48.101Z,99978.72
2022-10-24T12:47:40.785Z,99975.34
2022-10-24T12:50:58.357Z,99978.00
2022-10-24T12:54:06.683Z,99982.62
2022-10-24T12:57:26.920Z,99985.25
2022-10-24T13:00:24.423Z,99975.16
2022-10-24T13:03:22.787Z,99984.78
2022-10-24T13:06:16.711Z,99984.59
2022-10-24T13:09:13.722Z,99973.44
2022-10-24T13:12:13.644Z,99972.03
2022-10-24T13:15:15.991Z,99970.16
2022-10-24T13:18:17.675Z,99960.53
2022-10-24T13:21:16.161Z,99969.03
2022-10-24T13:24:22.866Z,99960.81
2022-10-24T13:27:25.773Z,99974.12
2022-10-24T13:30:35.572Z,99969.31
2022-10-24T13:33:42.334Z,99976.22
2022-10-24T13:36:33.643Z,99967.31
2022-10-24T13:39:25.523Z,99971.37
2022-10-24T13:42:26.181Z,99976.44
2022-10-24T13:45:24.705Z,99979.59
2022-10-24T13:48:18.091Z,99977.91
2022-10-24T13:51:09.498Z,99982.66
2022-10-24T13:54:03.121Z,99977.66
2022-10-24T13:56:50.509Z,99989.66
2022-10-24T13:59:40.857Z,99981.66
2022-10-24T14:02:32.723Z,99981.97
2022-10-24T14:05:32.574Z,99972.75
2022-10-24T14:08:24.885Z,99969.28
2022-10-24T14:11:18.572Z,99961.13
2022-10-24T14:14:16.750Z,99963.75
2022-10-24T14:17:23.998Z,99956.41
2022-10-24T14:20:24.013Z,99955.25
2022-10-24T14:23:25.448Z,99967.25
2022-10-24T14:26:16.552Z,99963.87
2022-10-24T14:29:03.559Z,99969.31
2022-10-24T14:31:56.506Z,99966.47
2022-10-24T14:34:43.718Z,99965.56
2022-10-24T14:37:34.564Z,99972.56
2022-10-24T14:40:23.255Z,99976.41
2022-10-24T14:43:15.285Z,99971.37
2022-10-24T14:46:06.307Z,99975.81
2022-10-24T14:48:53.033Z,99974.16
2022-10-24T14:51:41.913Z,99977.03
2022-10-24T14:54:33.254Z,99982.75
2022-10-24T14:57:23.941Z,99985.16
2022-10-24T15:00:23.358Z,99991.31
2022-10-24T15:03:11.469Z,100000.28
2022-10-24T15:06:00.520Z,99990.84
2022-10-24T15:09:03.889Z,99991.25
2022-10-24T15:12:01.270Z,100002.34
2022-10-24T15:14:51.673Z,99998.06
2022-10-24T15:17:40.215Z,99993.37
2022-10-24T15:20:30.063Z,99998.59
2022-10-24T15:23:22.325Z,100003.91
2022-10-24T15:26:13.854Z,99999.09
2022-10-24T15:29:08.603Z,100004.88
2022-10-24T15:31:56.819Z,100002.91
2022-10-24T15:34:43.465Z,99995.88
2022-10-24T15:37:30.738Z,99989.88
2022-10-24T15:40:21.937Z,99991.47
2022-10-24T15:43:12.216Z,99996.44
2022-10-24T15:45:59.139Z,99988.56
2022-10-24T15:48:47.895Z,99986.44
2022-10-24T15:51:34.675Z,99993.56
2022-10-24T15:54:23.634Z,99998.66
2022-10-24T15:57:12.691Z,100003.06
2022-10-24T15:59:59.976Z,99998.38
2022-10-24T16:02:48.937Z,100009.06
2022-10-24T16:05:42.815Z,100007.25
2022-10-24T16:08:29.225Z,100013.69
2022-10-24T16:11:16.681Z,100021.97
2022-10-24T16:14:04.376Z,100031.28
2022-10-24T16:16:54.068Z,100027.22
2022-10-24T16:19:41.342Z,100026.28
2022-10-24T16:22:30.190Z,100028.47
2022-10-24T16:25:18.558Z,100034.41
2022-10-24T16:28:08.003Z,100034.06
2022-10-24T16:30:54.998Z,100033.75
2022-10-24T16:33:42.084Z,100023.44
2022-10-24T16:36:29.375Z,100028.34
2022-10-24T16:39:17.979Z,100020.59
2022-10-24T16:42:07.232Z,100027.88
2022-10-24T16:44:54.630Z,100027.34
2022-10-24T16:47:41.255Z,100022.31
2022-10-24T16:50:30.124Z,100027.34
2022-10-24T16:53:18.380Z,100031.44
2022-10-24T16:56:10.268Z,100038.84
2022-10-24T16:58:57.290Z,100033.81
2022-10-24T17:01:44.576Z,100036.84
2022-10-24T17:04:33.594Z,100033.81
2022-10-24T17:07:20.846Z,100033.47
2022-10-24T17:10:08.777Z,100024.03
2022-10-24T17:12:57.542Z,100037.84
2022-10-24T17:15:44.646Z,100029.56
2022-10-24T17:18:32.269Z,100028.72
2022-10-24T17:21:27.741Z,100026.38
2022-10-24T17:24:17.142Z,100030.75
2022-10-24T17:27:04.458Z,100035.50
2022-10-24T17:29:53.706Z,100036.84
2022-10-24T17:32:41.028Z,100034.84
2022-10-24T17:35:28.554Z,100038.19
2022-10-24T17:38:37.970Z,100041.06
2022-10-24T17:41:27.737Z,100046.59
2022-10-24T17:44:18.115Z,100046.59
2022-10-24T17:47:08.437Z,100052.00
2022-10-24T17:49:55.758Z,100053.03
2022-10-24T17:52:43.909Z,100063.66
2022-10-24T17:55:45.537Z,100061.09
2022-10-24T17:58:34.755Z,100055.88
2022-10-24T18:01:21.696Z,100065.16
2022-10-24T18:04:10.405Z,100063.31
2022-10-24T18:06:57.930Z,100067.19
2022-10-24T18:09:45.552Z,100067.37
2022-10-24T18:12:34.709Z,100068.38
2022-10-24T18:15:22.005Z,100065.16
2022-10-24T18:18:08.943Z,100072.25
2022-10-24T18:21:08.798Z,100065.50
2022-10-24T18:23:56.676Z,100064.50
2022-10-24T18:26:44.396Z,100072.25
2022-10-24T18:29:31.349Z,100077.81
2022-10-24T18:32:20.247Z,100081.00
2022-10-24T18:35:07.918Z,100079.34
2022-10-24T18:37:56.222Z,100083.03
2022-10-24T18:40:43.523Z,100081.19
2022-10-24T18:43:31.351Z,100078.97
2022-10-24T18:46:18.875Z,100078.66
2022-10-24T18:49:06.305Z,100075.97
2022-10-24T18:52:00.060Z,100078.66
2022-10-24T18:54:59.472Z,100063.94
2022-10-24T18:57:48.164Z,100073.88
2022-10-24T19:00:38.241Z,100074.56
2022-10-24T19:03:31.064Z,100078.44
2022-10-24T19:06:24.879Z,100078.59
2022-10-24T19:09:18.044Z,100078.78
2022-10-24T19:12:07.492Z,100086.19
2022-10-24T19:14:54.930Z,100077.41
2022-10-24T19:17:42.645Z,100083.97
2022-10-24T19:20:32.411Z,100090.56
2022-10-24T19:23:19.631Z,100083.47
2022-10-24T19:26:07.045Z,100088.03
2022-10-24T19:28:55.993Z,100085.34
2022-10-24T19:31:43.004Z,100085.81
2022-10-24T19:34:31.033Z,100090.34
2022-10-24T19:37:19.392Z,100081.59
2022-10-24T19:40:08.018Z,100085.31
2022-10-24T19:42:55.163Z,100085.66
2022-10-24T19:45:50.132Z,100090.34
2022-10-24T19:48:49.448Z,100088.81
2022-10-24T19:51:36.787Z,100089.00
2022-10-24T19:54:23.537Z,100081.06
2022-10-24T19:57:10.963Z,100086.62
2022-10-24T19:59:58.073Z,100089.50
2022-10-24T20:02:47.420Z,100076.50
2022-10-24T20:05:36.184Z,100080.87
2022-10-24T20:08:23.078Z,100080.38
2022-10-24T20:11:11.214Z,100081.56
2022-10-24T20:13:58.133Z,100080.84
2022-10-24T20:16:45.573Z,100078.50
2022-10-24T20:19:33.980Z,100082.53
2022-10-24T20:22:21.498Z,100079.31
2022-10-24T20:25:08.822Z,100092.25
2022-10-24T20:27:56.449Z,100096.28
2022-10-24T20:30:45.609Z,100096.59
2022-10-24T20:33:33.144Z,100095.91
2022-10-24T20:36:21.862Z,100103.16
2022-10-24T20:39:10.465Z,100099.91
2022-10-24T20:41:57.724Z,100099.91
2022-10-24T20:44:45.067Z,100102.75
2022-10-24T20:47:32.067Z,100103.06
2022-10-24T20:50:19.269Z,100106.78
2022-10-24T20:53:07.802Z,100109.62
2022-10-24T20:55:54.914Z,100104.59
2022-10-24T20:58:43.355Z,100111.09
2022-10-24T21:01:31.011Z,100113.97
2022-10-24T21:04:20.717Z,100124.06
2022-10-24T21:07:08.306Z,100111.59
2022-10-24T21:09:56.637Z,100125.50
2022-10-24T21:12:46.820Z,100131.06
2022-10-24T21:15:34.625Z,100135.59
2022-10-24T21:18:22.087Z,100134.75
2022-10-24T21:21:10.391Z,100136.78
2022-10-24T21:24:02.505Z,100139.28
2022-10-24T21:26:54.117Z,100134.25
2022-10-24T21:29:41.132Z,100140.31
2022-10-24T21:32:28.046Z,100140.97
2022-10-24T21:35:15.393Z,100142.16
2022-10-24T21:38:02.262Z,100143.00
2022-10-24T21:40:49.668Z,100140.47
2022-10-24T21:43:40.057Z,100142.47
2022-10-24T21:46:29.214Z,100139.94
2022-10-24T21:49:16.176Z,100139.41
2022-10-24T21:52:03.281Z,100138.87
2022-10-24T21:54:50.252Z,100145.28
2022-10-24T21:57:37.801Z,100140.06
2022-10-24T22:00:25.926Z,100145.72
2022-10-24T22:03:13.132Z,100151.09
2022-10-24T22:06:00.165Z,100155.81
2022-10-24T22:08:49.318Z,100154.28
2022-10-24T22:11:37.510Z,100158.13
2022-10-24T22:14:24.955Z,100156.41
2022-10-24T22:17:13.282Z,100164.50
2022-10-24T22:20:00.515Z,100160.97
2022-10-24T22:22:47.385Z,100167.19
2022-10-24T22:25:34.919Z,100172.56
2022-10-24T22:28:22.428Z,100179.78
2022-10-24T22:31:10.887Z,100178.94
2022-10-24T22:33:59.923Z,100180.63
2022-10-24T22:37:09.037Z,100186.00
2022-10-24T22:39:56.492Z,100189.41
2022-10-24T22:42:44.565Z,100189.03
2022-10-24T22:45:32.568Z,100179.25
2022-10-24T22:48:23.427Z,100192.03
2022-10-24T22:51:12.586Z,100178.91
2022-10-24T22:54:00.405Z,100183.56
2022-10-24T22:56:48.021Z,100177.50
2022-10-24T22:59:35.757Z,100187.91
2022-10-24T23:02:31.326Z,100188.91
2022-10-24T23:05:30.359Z,100191.88
2022-10-24T23:08:30.159Z,100188.50
2022-10-24T23:11:17.772Z,100187.81
2022-10-24T23:14:05.144Z,100186.13
2022-10-24T23:16:57.822Z,100184.28
2022-10-24T23:19:46.877Z,100187.38
2022-10-24T23:22:34.332Z,100191.91
2022-10-24T23:25:23.814Z,100204.66
2022-10-24T23:28:20.381Z,100197.59
2022-10-24T23:31:08.120Z,100197.94
2022-10-24T23:33:55.945Z,100204.84
2022-10-24T23:36:45.501Z,100205.84
2022-10-24T23:39:34.870Z,100211.22
2022-10-24T23:42:24.178Z,100208.53
2022-10-24T23:45:14.200Z,100221.97
2022-10-24T23:48:22.222Z,100219.56
2022-10-24T23:51:14.738Z,100218.28
2022-10-24T23:54:02.039Z,100221.28
2022-10-24T23:56:49.468Z,100224.66
2022-10-24T23:59:37.695Z,100215.59
